Terminal Aerodrome Forecast
Issued by NWS

Home | Current Version | Previous Version | Text Only | Print | Product List | Glossary On
Versions: 1 2 3 4 5 6 7 8 9 10 11 12 13 14 15 16 17 18 19 20 21 22
000
FTUS44 KOHX 200659 AAB
TAFCKV
TAF AMD
KCKV 200659Z 2007/2106 00000KT 4SM BR FEW250
      TEMPO 2007/2010 1/4SM FG
     FM201000 00000KT 1SM BR FEW250
     FM201100 15004KT P6SM FEW250=

USA.gov is the U.S. government's official web portal to all federal, state and local government web resources and services.